YLVT weather

CLOSED RAAF Williams, Laverton Base
Laverton, Victoria, Australia

Public forecast

Using degrees Celsius for public forecast. Weather courtesy of forecast.io.

METAR (pilot weather report)

Closest report is Melbourne Essendon Airport, 11.0 nm (20.4 km) NE. Retrieved 2018/10/23 09:00 UTC (15 minutes ago):

YMEN 230900Z AUTO 18015KT 9999 // SCT041 OVC048 13/07 Q1019

TAF (pilot weather forecast)

Closest forecast is Melbourne International Airport, 12.3 nm (22.8 km) NNE. Retrieved 2018/10/23 06:00 UTC (3 hours ago):

TAF YMML 230508Z 2306/2412 18012KT 9999 SCT030 BKN040 FM231200 25006KT 9999 SCT035 FM232200 17010KT 9999 SCT040